sensor_id;sensor_type;location;lat;lon;timestamp;pressure;altitude;pressure_sealevel;temperature;humidity
83444;BME280;73374;41.170;-96.156;2024-02-26T00:03:06;96578.78;;;17.49;25.49
83444;BME280;73374;41.170;-96.156;2024-02-26T00:08:10;96576.00;;;17.14;26.00
83444;BME280;73374;41.170;-96.156;2024-02-26T00:13:14;96587.88;;;16.68;27.18
83444;BME280;73374;41.170;-96.156;2024-02-26T00:18:17;96592.66;;;16.28;27.73
83444;BME280;73374;41.170;-96.156;2024-02-26T00:23:20;96590.75;;;15.60;28.58
83444;BME280;73374;41.170;-96.156;2024-02-26T00:28:25;96598.03;;;15.14;29.31
83444;BME280;73374;41.170;-96.156;2024-02-26T00:33:28;96593.88;;;14.99;29.51
83444;BME280;73374;41.170;-96.156;2024-02-26T00:38:31;96601.34;;;14.96;29.43
83444;BME280;73374;41.170;-96.156;2024-02-26T00:43:36;96614.91;;;14.53;30.31
83444;BME280;73374;41.170;-96.156;2024-02-26T00:48:39;96609.13;;;14.44;30.24
83444;BME280;73374;41.170;-96.156;2024-02-26T00:53:42;96605.44;;;13.66;31.90
83444;BME280;73374;41.170;-96.156;2024-02-26T00:58:47;96604.44;;;13.67;31.75
83444;BME280;73374;41.170;-96.156;2024-02-26T01:03:50;96619.34;;;13.73;31.29
83444;BME280;73374;41.170;-96.156;2024-02-26T01:08:54;96615.31;;;13.16;32.54
83444;BME280;73374;41.170;-96.156;2024-02-26T01:13:58;96618.88;;;13.43;32.12
83444;BME280;73374;41.170;-96.156;2024-02-26T01:19:01;96629.66;;;13.34;32.14
83444;BME280;73374;41.170;-96.156;2024-02-26T01:24:05;96634.97;;;13.12;32.67
83444;BME280;73374;41.170;-96.156;2024-02-26T01:29:10;96642.81;;;12.71;33.55
83444;BME280;73374;41.170;-96.156;2024-02-26T01:34:13;96633.53;;;12.06;34.76
83444;BME280;73374;41.170;-96.156;2024-02-26T01:39:16;96649.22;;;11.91;35.23
83444;BME280;73374;41.170;-96.156;2024-02-26T01:44:21;96649.00;;;12.14;34.69
83444;BME280;73374;41.170;-96.156;2024-02-26T01:49:24;96651.75;;;11.63;35.41
83444;BME280;73374;41.170;-96.156;2024-02-26T01:54:28;96643.97;;;11.48;35.51
83444;BME280;73374;41.170;-96.156;2024-02-26T01:59:34;96658.03;;;11.18;36.55
83444;BME280;73374;41.170;-96.156;2024-02-26T02:04:39;96649.63;;;10.72;37.67
83444;BME280;73374;41.170;-96.156;2024-02-26T02:09:42;96650.63;;;10.18;38.68
83444;BME280;73374;41.170;-96.156;2024-02-26T02:14:47;96652.94;;;10.13;38.57
83444;BME280;73374;41.170;-96.156;2024-02-26T02:19:50;96643.72;;;10.11;38.74
83444;BME280;73374;41.170;-96.156;2024-02-26T02:24:55;96628.03;;;10.04;38.78
83444;BME280;73374;41.170;-96.156;2024-02-26T02:29:58;96639.78;;;10.15;38.81
83444;BME280;73374;41.170;-96.156;2024-02-26T02:35:01;96646.41;;;10.17;38.40
83444;BME280;73374;41.170;-96.156;2024-02-26T02:40:07;96634.91;;;9.97;39.29
83444;BME280;73374;41.170;-96.156;2024-02-26T02:45:10;96630.50;;;9.60;40.63
83444;BME280;73374;41.170;-96.156;2024-02-26T02:50:14;96632.22;;;9.67;40.38
83444;BME280;73374;41.170;-96.156;2024-02-26T02:55:18;96627.59;;;9.32;41.48
83444;BME280;73374;41.170;-96.156;2024-02-26T03:00:21;96619.00;;;9.00;42.19
83444;BME280;73374;41.170;-96.156;2024-02-26T03:05:25;96626.69;;;8.86;42.59
83444;BME280;73374;41.170;-96.156;2024-02-26T03:10:29;96625.38;;;8.90;42.27
83444;BME280;73374;41.170;-96.156;2024-02-26T03:15:33;96625.38;;;8.82;42.44
83444;BME280;73374;41.170;-96.156;2024-02-26T03:20:36;96626.66;;;8.94;40.93
83444;BME280;73374;41.170;-96.156;2024-02-26T03:25:41;96634.81;;;9.14;40.99
83444;BME280;73374;41.170;-96.156;2024-02-26T03:30:44;96632.03;;;9.15;41.18
83444;BME280;73374;41.170;-96.156;2024-02-26T03:35:47;96639.09;;;9.29;41.53
83444;BME280;73374;41.170;-96.156;2024-02-26T03:40:52;96655.03;;;9.49;41.64
83444;BME280;73374;41.170;-96.156;2024-02-26T03:45:55;96660.75;;;9.36;40.99
83444;BME280;73374;41.170;-96.156;2024-02-26T03:50:58;96669.31;;;9.45;41.23
83444;BME280;73374;41.170;-96.156;2024-02-26T03:56:05;96680.88;;;9.65;40.70
83444;BME280;73374;41.170;-96.156;2024-02-26T04:01:09;96676.84;;;9.32;41.63
83444;BME280;73374;41.170;-96.156;2024-02-26T04:06:12;96688.88;;;9.25;41.94
83444;BME280;73374;41.170;-96.156;2024-02-26T04:11:17;96681.38;;;8.91;42.95
83444;BME280;73374;41.170;-96.156;2024-02-26T04:16:20;96676.72;;;8.78;43.35
83444;BME280;73374;41.170;-96.156;2024-02-26T04:21:23;96683.59;;;8.55;43.83
83444;BME280;73374;41.170;-96.156;2024-02-26T04:26:28;96671.97;;;8.02;45.40
83444;BME280;73374;41.170;-96.156;2024-02-26T04:31:31;96663.22;;;8.19;44.59
83444;BME280;73374;41.170;-96.156;2024-02-26T04:36:34;96664.69;;;8.22;44.91
83444;BME280;73374;41.170;-96.156;2024-02-26T04:41:38;96660.66;;;8.03;45.18
83444;BME280;73374;41.170;-96.156;2024-02-26T04:46:42;96649.78;;;8.15;43.93
83444;BME280;73374;41.170;-96.156;2024-02-26T04:51:45;96652.56;;;7.90;45.12
83444;BME280;73374;41.170;-96.156;2024-02-26T04:56:49;96652.25;;;8.01;45.21
83444;BME280;73374;41.170;-96.156;2024-02-26T05:01:52;96646.41;;;7.74;45.52
83444;BME280;73374;41.170;-96.156;2024-02-26T05:06:56;96643.47;;;7.53;45.36
83444;BME280;73374;41.170;-96.156;2024-02-26T05:12:00;96646.03;;;7.45;44.83
83444;BME280;73374;41.170;-96.156;2024-02-26T05:17:04;96650.91;;;7.80;46.35
83444;BME280;73374;41.170;-96.156;2024-02-26T05:22:07;96641.84;;;7.60;47.23
83444;BME280;73374;41.170;-96.156;2024-02-26T05:27:12;96643.81;;;7.50;48.21
83444;BME280;73374;41.170;-96.156;2024-02-26T05:32:15;96637.63;;;7.35;47.45
83444;BME280;73374;41.170;-96.156;2024-02-26T05:37:18;96634.72;;;7.30;48.29
83444;BME280;73374;41.170;-96.156;2024-02-26T05:42:22;96624.03;;;7.24;48.86
83444;BME280;73374;41.170;-96.156;2024-02-26T05:47:25;96634.06;;;7.28;48.72
83444;BME280;73374;41.170;-96.156;2024-02-26T05:52:28;96640.13;;;7.10;50.08
83444;BME280;73374;41.170;-96.156;2024-02-26T05:57:33;96624.84;;;7.17;50.18
83444;BME280;73374;41.170;-96.156;2024-02-26T06:02:36;96621.56;;;7.07;50.31
83444;BME280;73374;41.170;-96.156;2024-02-26T06:07:39;96620.72;;;6.90;51.01
83444;BME280;73374;41.170;-96.156;2024-02-26T06:12:44;96630.06;;;6.83;51.51
83444;BME280;73374;41.170;-96.156;2024-02-26T06:17:47;96612.50;;;6.52;51.92
83444;BME280;73374;41.170;-96.156;2024-02-26T06:22:50;96611.25;;;6.30;52.94
83444;BME280;73374;41.170;-96.156;2024-02-26T06:27:55;96595.22;;;6.45;52.32
83444;BME280;73374;41.170;-96.156;2024-02-26T06:32:58;96586.59;;;6.36;52.32
83444;BME280;73374;41.170;-96.156;2024-02-26T06:38:01;96581.09;;;6.31;51.73
83444;BME280;73374;41.170;-96.156;2024-02-26T06:43:06;96566.50;;;6.14;52.32
83444;BME280;73374;41.170;-96.156;2024-02-26T06:48:09;96563.44;;;6.44;52.73
83444;BME280;73374;41.170;-96.156;2024-02-26T06:53:12;96542.19;;;6.24;53.06
83444;BME280;73374;41.170;-96.156;2024-02-26T06:58:17;96538.81;;;6.24;53.18
83444;BME280;73374;41.170;-96.156;2024-02-26T07:03:20;96532.16;;;6.13;52.81
83444;BME280;73374;41.170;-96.156;2024-02-26T07:08:23;96531.63;;;6.01;53.09
83444;BME280;73374;41.170;-96.156;2024-02-26T07:13:28;96532.03;;;6.15;53.20
83444;BME280;73374;41.170;-96.156;2024-02-26T07:18:31;96522.16;;;6.10;53.29
83444;BME280;73374;41.170;-96.156;2024-02-26T07:23:34;96517.28;;;6.07;53.38
83444;BME280;73374;41.170;-96.156;2024-02-26T07:28:39;96516.66;;;6.05;52.27
83444;BME280;73374;41.170;-96.156;2024-02-26T07:33:42;96521.22;;;6.11;51.75
83444;BME280;73374;41.170;-96.156;2024-02-26T07:38:45;96528.06;;;6.02;52.15
83444;BME280;73374;41.170;-96.156;2024-02-26T07:43:53;96520.06;;;5.88;51.96
83444;BME280;73374;41.170;-96.156;2024-02-26T07:48:56;96504.00;;;5.68;52.53
83444;BME280;73374;41.170;-96.156;2024-02-26T07:53:59;96497.91;;;5.95;51.36
83444;BME280;73374;41.170;-96.156;2024-02-26T07:59:03;96491.88;;;5.86;51.78
83444;BME280;73374;41.170;-96.156;2024-02-26T08:04:06;96490.00;;;5.70;51.60
83444;BME280;73374;41.170;-96.156;2024-02-26T08:09:10;96482.38;;;5.61;52.68
83444;BME280;73374;41.170;-96.156;2024-02-26T08:14:14;96462.09;;;5.58;52.90
83444;BME280;73374;41.170;-96.156;2024-02-26T08:19:17;96453.22;;;5.60;52.83
83444;BME280;73374;41.170;-96.156;2024-02-26T08:24:21;96441.75;;;5.55;52.32
83444;BME280;73374;41.170;-96.156;2024-02-26T08:29:25;96437.47;;;5.37;52.90
83444;BME280;73374;41.170;-96.156;2024-02-26T08:34:28;96427.28;;;5.28;53.64
83444;BME280;73374;41.170;-96.156;2024-02-26T08:39:32;96412.94;;;5.25;54.31
83444;BME280;73374;41.170;-96.156;2024-02-26T08:44:36;96411.91;;;5.18;53.17
83444;BME280;73374;41.170;-96.156;2024-02-26T08:49:43;96411.16;;;5.26;53.61
83444;BME280;73374;41.170;-96.156;2024-02-26T08:54:46;96391.72;;;5.31;54.19
83444;BME280;73374;41.170;-96.156;2024-02-26T08:59:50;96385.94;;;5.37;54.01
83444;BME280;73374;41.170;-96.156;2024-02-26T09:04:53;96376.13;;;5.67;52.50
83444;BME280;73374;41.170;-96.156;2024-02-26T09:09:56;96366.59;;;6.01;51.05
83444;BME280;73374;41.170;-96.156;2024-02-26T09:15:01;96362.31;;;5.84;51.50
83444;BME280;73374;41.170;-96.156;2024-02-26T09:20:05;96348.09;;;5.72;51.79
83444;BME280;73374;41.170;-96.156;2024-02-26T09:25:08;96350.09;;;5.86;50.74
83444;BME280;73374;41.170;-96.156;2024-02-26T09:30:14;96333.00;;;5.85;50.43
83444;BME280;73374;41.170;-96.156;2024-02-26T09:35:17;96319.63;;;5.82;50.01
83444;BME280;73374;41.170;-96.156;2024-02-26T09:40:20;96310.56;;;5.69;50.08
83444;BME280;73374;41.170;-96.156;2024-02-26T09:45:26;96305.88;;;5.57;50.76
83444;BME280;73374;41.170;-96.156;2024-02-26T09:50:30;96308.03;;;5.35;51.79
83444;BME280;73374;41.170;-96.156;2024-02-26T09:55:34;96298.31;;;5.63;50.90
83444;BME280;73374;41.170;-96.156;2024-02-26T10:00:38;96287.06;;;5.64;49.97
83444;BME280;73374;41.170;-96.156;2024-02-26T10:05:43;96287.25;;;5.79;49.21
83444;BME280;73374;41.170;-96.156;2024-02-26T10:10:47;96278.78;;;5.44;50.21
83444;BME280;73374;41.170;-96.156;2024-02-26T10:15:54;96268.72;;;5.25;50.79
83444;BME280;73374;41.170;-96.156;2024-02-26T10:21:01;96256.78;;;5.16;51.24
83444;BME280;73374;41.170;-96.156;2024-02-26T10:26:05;96245.81;;;5.06;51.88
83444;BME280;73374;41.170;-96.156;2024-02-26T10:31:10;96238.19;;;4.96;51.61
83444;BME280;73374;41.170;-96.156;2024-02-26T10:36:13;96240.97;;;4.77;51.63
83444;BME280;73374;41.170;-96.156;2024-02-26T10:41:18;96228.44;;;4.82;50.99
83444;BME280;73374;41.170;-96.156;2024-02-26T10:46:22;96213.84;;;4.57;51.83
83444;BME280;73374;41.170;-96.156;2024-02-26T10:51:27;96217.25;;;4.57;51.88
83444;BME280;73374;41.170;-96.156;2024-02-26T10:56:33;96200.34;;;4.54;51.20
83444;BME280;73374;41.170;-96.156;2024-02-26T11:01:39;96211.38;;;4.73;51.51
83444;BME280;73374;41.170;-96.156;2024-02-26T11:06:43;96210.56;;;4.72;51.43
83444;BME280;73374;41.170;-96.156;2024-02-26T11:11:48;96187.34;;;4.90;51.37
83444;BME280;73374;41.170;-96.156;2024-02-26T11:16:55;96154.53;;;4.92;50.69
83444;BME280;73374;41.170;-96.156;2024-02-26T11:21:59;96159.13;;;5.31;49.63
83444;BME280;73374;41.170;-96.156;2024-02-26T11:27:13;96156.41;;;5.32;49.72
83444;BME280;73374;41.170;-96.156;2024-02-26T11:32:21;96146.25;;;5.31;49.30
83444;BME280;73374;41.170;-96.156;2024-02-26T11:37:24;96137.88;;;5.37;49.30
83444;BME280;73374;41.170;-96.156;2024-02-26T11:42:28;96154.84;;;5.56;48.46
83444;BME280;73374;41.170;-96.156;2024-02-26T11:47:35;96167.34;;;5.34;49.27
83444;BME280;73374;41.170;-96.156;2024-02-26T11:52:38;96139.81;;;5.35;49.00
83444;BME280;73374;41.170;-96.156;2024-02-26T11:57:41;96128.34;;;5.13;49.85
83444;BME280;73374;41.170;-96.156;2024-02-26T12:02:50;96114.19;;;5.09;50.16
83444;BME280;73374;41.170;-96.156;2024-02-26T12:07:54;96121.75;;;5.19;50.25
83444;BME280;73374;41.170;-96.156;2024-02-26T12:13:03;96110.38;;;5.21;49.50
83444;BME280;73374;41.170;-96.156;2024-02-26T12:18:10;96100.22;;;5.28;49.92
83444;BME280;73374;41.170;-96.156;2024-02-26T12:23:18;96090.72;;;5.28;49.09
83444;BME280;73374;41.170;-96.156;2024-02-26T12:28:21;96080.06;;;4.99;49.93
83444;BME280;73374;41.170;-96.156;2024-02-26T12:33:26;96074.59;;;5.02;50.36
83444;BME280;73374;41.170;-96.156;2024-02-26T12:38:29;96078.78;;;4.95;50.01
83444;BME280;73374;41.170;-96.156;2024-02-26T12:43:32;96074.09;;;4.98;49.67
83444;BME280;73374;41.170;-96.156;2024-02-26T12:48:37;96073.59;;;4.78;50.13
83444;BME280;73374;41.170;-96.156;2024-02-26T12:53:40;96073.53;;;4.62;49.97
83444;BME280;73374;41.170;-96.156;2024-02-26T12:58:44;96054.56;;;4.63;51.06
83444;BME280;73374;41.170;-96.156;2024-02-26T13:03:49;96046.25;;;4.69;51.30
83444;BME280;73374;41.170;-96.156;2024-02-26T13:08:56;96027.06;;;4.64;50.34
83444;BME280;73374;41.170;-96.156;2024-02-26T13:14:00;96027.88;;;4.56;51.25
83444;BME280;73374;41.170;-96.156;2024-02-26T13:19:10;96026.59;;;4.60;51.33
83444;BME280;73374;41.170;-96.156;2024-02-26T13:24:14;96027.53;;;4.59;50.86
83444;BME280;73374;41.170;-96.156;2024-02-26T13:29:17;96018.09;;;4.76;51.21
83444;BME280;73374;41.170;-96.156;2024-02-26T13:34:25;96052.31;;;4.68;51.01
83444;BME280;73374;41.170;-96.156;2024-02-26T13:39:29;96029.72;;;4.88;50.83
83444;BME280;73374;41.170;-96.156;2024-02-26T13:44:32;96021.69;;;5.15;48.89
83444;BME280;73374;41.170;-96.156;2024-02-26T13:49:37;96041.31;;;5.65;48.12
83444;BME280;73374;41.170;-96.156;2024-02-26T13:54:40;96035.00;;;5.84;47.95
83444;BME280;73374;41.170;-96.156;2024-02-26T13:59:43;96029.66;;;6.02;46.85
83444;BME280;73374;41.170;-96.156;2024-02-26T14:04:48;96035.06;;;6.23;47.26
83444;BME280;73374;41.170;-96.156;2024-02-26T14:09:51;96029.53;;;6.43;46.21
83444;BME280;73374;41.170;-96.156;2024-02-26T14:14:54;96019.13;;;6.59;46.32
83444;BME280;73374;41.170;-96.156;2024-02-26T14:19:59;96012.50;;;6.64;46.35
83444;BME280;73374;41.170;-96.156;2024-02-26T14:25:02;96043.28;;;7.20;44.94
83444;BME280;73374;41.170;-96.156;2024-02-26T14:30:06;96061.16;;;7.30;45.98
83444;BME280;73374;41.170;-96.156;2024-02-26T14:35:11;96026.47;;;7.62;44.60
83444;BME280;73374;41.170;-96.156;2024-02-26T14:40:19;96013.84;;;7.96;44.71
83444;BME280;73374;41.170;-96.156;2024-02-26T14:45:22;96004.34;;;8.77;42.52
83444;BME280;73374;41.170;-96.156;2024-02-26T14:50:26;95971.63;;;8.91;42.97
83444;BME280;73374;41.170;-96.156;2024-02-26T14:55:29;96000.47;;;9.80;40.22
83444;BME280;73374;41.170;-96.156;2024-02-26T15:00:32;95987.19;;;10.31;39.49
83444;BME280;73374;41.170;-96.156;2024-02-26T15:05:37;95976.84;;;11.11;38.03
83444;BME280;73374;41.170;-96.156;2024-02-26T15:10:40;95962.25;;;11.37;37.01
83444;BME280;73374;41.170;-96.156;2024-02-26T15:15:44;95947.16;;;12.18;36.40
83444;BME280;73374;41.170;-96.156;2024-02-26T15:20:48;95939.31;;;12.63;36.58
83444;BME280;73374;41.170;-96.156;2024-02-26T15:25:51;95933.09;;;13.02;34.80
83444;BME280;73374;41.170;-96.156;2024-02-26T15:30:54;95932.75;;;13.17;34.94
83444;BME280;73374;41.170;-96.156;2024-02-26T15:35:59;95925.78;;;13.42;33.91
83444;BME280;73374;41.170;-96.156;2024-02-26T15:41:02;95928.09;;;13.75;34.32
83444;BME280;73374;41.170;-96.156;2024-02-26T15:46:05;95918.72;;;14.23;33.22
83444;BME280;73374;41.170;-96.156;2024-02-26T15:51:18;95902.09;;;14.54;32.68
83444;BME280;73374;41.170;-96.156;2024-02-26T15:56:21;95879.25;;;15.02;32.76
83444;BME280;73374;41.170;-96.156;2024-02-26T16:01:25;95901.22;;;15.01;31.92
83444;BME280;73374;41.170;-96.156;2024-02-26T16:06:40;95897.50;;;16.03;30.30
83444;BME280;73374;41.170;-96.156;2024-02-26T16:11:44;95901.94;;;16.02;30.16
83444;BME280;73374;41.170;-96.156;2024-02-26T16:16:51;95884.69;;;16.86;29.68
83444;BME280;73374;41.170;-96.156;2024-02-26T16:21:58;95895.97;;;17.54;29.17
83444;BME280;73374;41.170;-96.156;2024-02-26T16:27:01;95889.03;;;17.82;28.49
83444;BME280;73374;41.170;-96.156;2024-02-26T16:32:05;95883.84;;;18.30;28.10
83444;BME280;73374;41.170;-96.156;2024-02-26T16:37:10;95872.59;;;19.16;26.42
83444;BME280;73374;41.170;-96.156;2024-02-26T16:42:58;95868.00;;;19.38;25.73
83444;BME280;73374;41.170;-96.156;2024-02-26T16:47:52;95862.09;;;18.89;25.88
83444;BME280;73374;41.170;-96.156;2024-02-26T16:52:56;95852.16;;;19.65;24.55
83444;BME280;73374;41.170;-96.156;2024-02-26T16:57:59;95835.38;;;19.86;25.05
83444;BME280;73374;41.170;-96.156;2024-02-26T17:03:11;95836.69;;;22.82;22.28
83444;BME280;73374;41.170;-96.156;2024-02-26T17:08:18;95841.19;;;20.66;22.90
83444;BME280;73374;41.170;-96.156;2024-02-26T17:13:21;95794.97;;;20.59;22.84
83444;BME280;73374;41.170;-96.156;2024-02-26T17:18:24;95803.16;;;20.98;22.20
83444;BME280;73374;41.170;-96.156;2024-02-26T17:23:29;95794.72;;;20.81;22.53
83444;BME280;73374;41.170;-96.156;2024-02-26T17:28:32;95780.03;;;22.73;21.93
83444;BME280;73374;41.170;-96.156;2024-02-26T17:33:35;95772.78;;;21.41;21.34
83444;BME280;73374;41.170;-96.156;2024-02-26T17:38:40;95746.28;;;22.60;20.19
83444;BME280;73374;41.170;-96.156;2024-02-26T17:43:43;95741.97;;;24.55;19.17
83444;BME280;73374;41.170;-96.156;2024-02-26T17:48:46;95723.38;;;23.80;19.90
83444;BME280;73374;41.170;-96.156;2024-02-26T17:53:51;95714.84;;;23.11;19.67
83444;BME280;73374;41.170;-96.156;2024-02-26T17:58:54;95706.66;;;23.56;18.85
83444;BME280;73374;41.170;-96.156;2024-02-26T18:03:57;95692.09;;;24.52;19.31
83444;BME280;73374;41.170;-96.156;2024-02-26T18:09:02;95680.16;;;24.96;18.44
83444;BME280;73374;41.170;-96.156;2024-02-26T18:14:05;95666.47;;;24.75;18.00
83444;BME280;73374;41.170;-96.156;2024-02-26T18:19:08;95658.31;;;24.20;18.13
83444;BME280;73374;41.170;-96.156;2024-02-26T18:24:13;95645.91;;;24.94;18.71
83444;BME280;73374;41.170;-96.156;2024-02-26T18:29:16;95629.81;;;25.18;17.73
83444;BME280;73374;41.170;-96.156;2024-02-26T18:34:19;95620.22;;;25.72;16.60
83444;BME280;73374;41.170;-96.156;2024-02-26T18:39:24;95603.16;;;25.60;17.04
83444;BME280;73374;41.170;-96.156;2024-02-26T18:44:28;95589.91;;;25.82;16.59
83444;BME280;73374;41.170;-96.156;2024-02-26T18:49:31;95568.22;;;27.13;16.08
83444;BME280;73374;41.170;-96.156;2024-02-26T18:54:35;95543.94;;;27.31;15.59
83444;BME280;73374;41.170;-96.156;2024-02-26T18:59:39;95518.97;;;26.70;15.01
83444;BME280;73374;41.170;-96.156;2024-02-26T19:04:42;95496.00;;;26.92;14.48
83444;BME280;73374;41.170;-96.156;2024-02-26T19:09:47;95479.66;;;28.32;13.75
83444;BME280;73374;41.170;-96.156;2024-02-26T19:14:50;95481.78;;;28.47;16.22
83444;BME280;73374;41.170;-96.156;2024-02-26T19:19:53;95484.63;;;27.60;14.33
83444;BME280;73374;41.170;-96.156;2024-02-26T19:24:58;95464.28;;;28.58;14.14
83444;BME280;73374;41.170;-96.156;2024-02-26T19:30:01;95441.97;;;28.54;14.50
83444;BME280;73374;41.170;-96.156;2024-02-26T19:35:04;95425.41;;;29.11;12.57
83444;BME280;73374;41.170;-96.156;2024-02-26T19:40:10;95408.69;;;28.43;12.11
83444;BME280;73374;41.170;-96.156;2024-02-26T19:45:13;95405.50;;;29.41;11.76
83444;BME280;73374;41.170;-96.156;2024-02-26T19:50:16;95405.06;;;29.19;12.47
83444;BME280;73374;41.170;-96.156;2024-02-26T19:55:21;95390.41;;;29.58;12.05
83444;BME280;73374;41.170;-96.156;2024-02-26T20:00:24;95381.84;;;28.90;11.99
83444;BME280;73374;41.170;-96.156;2024-02-26T20:05:27;95375.94;;;28.75;11.29
83444;BME280;73374;41.170;-96.156;2024-02-26T20:10:32;95355.88;;;28.69;12.08
83444;BME280;73374;41.170;-96.156;2024-02-26T20:15:35;95351.97;;;28.67;11.66
83444;BME280;73374;41.170;-96.156;2024-02-26T20:20:39;95333.38;;;28.70;11.80
83444;BME280;73374;41.170;-96.156;2024-02-26T20:25:44;95340.13;;;28.17;11.45
83444;BME280;73374;41.170;-96.156;2024-02-26T20:30:47;95324.38;;;28.54;12.47
83444;BME280;73374;41.170;-96.156;2024-02-26T20:35:50;95315.50;;;28.12;12.21
83444;BME280;73374;41.170;-96.156;2024-02-26T20:40:55;95318.94;;;27.83;11.95
83444;BME280;73374;41.170;-96.156;2024-02-26T20:45:58;95321.13;;;28.19;11.60
83444;BME280;73374;41.170;-96.156;2024-02-26T20:51:01;95316.03;;;27.67;12.21
83444;BME280;73374;41.170;-96.156;2024-02-26T20:56:07;95299.28;;;28.88;12.11
83444;BME280;73374;41.170;-96.156;2024-02-26T21:01:10;95298.28;;;28.93;11.94
83444;BME280;73374;41.170;-96.156;2024-02-26T21:06:13;95306.31;;;27.92;11.05
83444;BME280;73374;41.170;-96.156;2024-02-26T21:11:18;95277.84;;;28.34;11.56
83444;BME280;73374;41.170;-96.156;2024-02-26T21:16:21;95310.63;;;28.14;11.28
83444;BME280;73374;41.170;-96.156;2024-02-26T21:21:25;95272.94;;;28.36;11.49
83444;BME280;73374;41.170;-96.156;2024-02-26T21:26:29;95269.25;;;27.61;11.56
83444;BME280;73374;41.170;-96.156;2024-02-26T21:31:34;95252.63;;;27.64;12.03
83444;BME280;73374;41.170;-96.156;2024-02-26T21:36:38;95259.34;;;27.61;12.10
83444;BME280;73374;41.170;-96.156;2024-02-26T21:41:42;95221.25;;;27.14;11.96
83444;BME280;73374;41.170;-96.156;2024-02-26T21:46:45;95255.13;;;27.14;11.65
83444;BME280;73374;41.170;-96.156;2024-02-26T21:51:48;95251.09;;;26.82;12.15
83444;BME280;73374;41.170;-96.156;2024-02-26T21:56:53;95244.88;;;27.24;12.23
83444;BME280;73374;41.170;-96.156;2024-02-26T22:01:56;95233.34;;;27.50;12.04
83444;BME280;73374;41.170;-96.156;2024-02-26T22:06:59;95229.41;;;27.09;11.78
83444;BME280;73374;41.170;-96.156;2024-02-26T22:12:04;95222.75;;;27.24;11.85
83444;BME280;73374;41.170;-96.156;2024-02-26T22:17:07;95234.72;;;27.56;12.56
83444;BME280;73374;41.170;-96.156;2024-02-26T22:22:10;95230.69;;;27.03;12.22
83444;BME280;73374;41.170;-96.156;2024-02-26T22:27:15;95237.91;;;27.41;12.46
83444;BME280;73374;41.170;-96.156;2024-02-26T22:32:18;95224.25;;;27.04;12.85
83444;BME280;73374;41.170;-96.156;2024-02-26T22:37:22;95229.28;;;26.80;12.85
83444;BME280;73374;41.170;-96.156;2024-02-26T22:42:26;95235.91;;;26.65;11.79
83444;BME280;73374;41.170;-96.156;2024-02-26T22:47:29;95235.25;;;26.68;12.75
83444;BME280;73374;41.170;-96.156;2024-02-26T22:52:32;95231.97;;;26.54;13.05
83444;BME280;73374;41.170;-96.156;2024-02-26T22:57:37;95229.91;;;26.33;14.18
83444;BME280;73374;41.170;-96.156;2024-02-26T23:02:40;95225.06;;;26.18;13.30
83444;BME280;73374;41.170;-96.156;2024-02-26T23:07:43;95230.56;;;25.65;12.86
83444;BME280;73374;41.170;-96.156;2024-02-26T23:12:48;95215.78;;;25.72;12.95
83444;BME280;73374;41.170;-96.156;2024-02-26T23:17:52;95240.25;;;25.52;13.23
83444;BME280;73374;41.170;-96.156;2024-02-26T23:22:55;95237.25;;;25.14;13.83
83444;BME280;73374;41.170;-96.156;2024-02-26T23:28:00;95253.28;;;24.78;13.66
83444;BME280;73374;41.170;-96.156;2024-02-26T23:33:03;95270.88;;;24.65;14.01
83444;BME280;73374;41.170;-96.156;2024-02-26T23:38:06;95275.66;;;24.27;14.38
83444;BME280;73374;41.170;-96.156;2024-02-26T23:43:11;95291.97;;;23.84;14.86
83444;BME280;73374;41.170;-96.156;2024-02-26T23:48:14;95291.81;;;23.34;15.16
83444;BME280;73374;41.170;-96.156;2024-02-26T23:53:17;95292.56;;;23.21;15.62
83444;BME280;73374;41.170;-96.156;2024-02-26T23:58:22;95305.91;;;22.46;16.21
